Time;durP1;ratioP1;P1;durP2;ratioP2;P2;SDS_P1;SDS_P2;PMS_P1;PMS_P2;Temp;Humidity;BMP_temperature;BMP_pressure;BME280_temperature;BME280_humidity;BME280_pressure;Samples;Min_cycle;Max_cycle;Signal;HPM_P1;HPM_P2
2022/11/08 00:02:20;;;;;;;9.07;2.28;;;;;;;14.11;100.00;100821.03;2625159;36;20435;-54
2022/11/08 00:04:48;;;;;;;6.15;1.77;;;;;;;14.01;100.00;100818.41;2610542;36;20571;-58
2022/11/08 00:15:22;;;;;;;7.32;1.92;;;;;;;13.67;100.00;100809.22;2611412;36;20065;-52
2022/11/08 00:17:51;;;;;;;9.35;2.20;;;;;;;13.83;100.00;100813.06;2609192;36;20034;-57
2022/11/08 00:20:19;;;;;;;10.48;2.35;;;;;;;13.59;100.00;100811.00;2611901;36;20035;-55
2022/11/08 00:22:48;;;;;;;8.73;2.40;;;;;;;13.61;100.00;100815.25;2610349;36;20993;-57
2022/11/08 00:25:19;;;;;;;9.30;1.93;;;;;;;13.67;100.00;100811.91;2610488;31;20547;-57
2022/11/08 00:27:47;;;;;;;7.05;2.58;;;;;;;13.56;100.00;100809.50;2608342;36;20949;-57
2022/11/08 00:30:16;;;;;;;5.63;2.13;;;;;;;13.61;100.00;100809.84;2611968;36;20030;-54
2022/11/08 00:32:44;;;;;;;7.78;1.80;;;;;;;13.63;100.00;100815.97;2607040;36;20295;-57
2022/11/08 00:35:13;;;;;;;9.27;2.20;;;;;;;13.56;100.00;100805.91;2609062;36;20030;-55
2022/11/08 00:37:41;;;;;;;10.05;2.80;;;;;;;13.71;100.00;100814.34;2610532;36;20029;-56
2022/11/08 00:40:11;;;;;;;9.20;2.37;;;;;;;13.68;100.00;100799.25;2610491;36;20022;-54
2022/11/08 00:42:42;;;;;;;5.63;2.10;;;;;;;13.53;100.00;100817.91;2608564;31;20137;-56
2022/11/08 00:45:11;;;;;;;6.22;2.03;;;;;;;13.59;100.00;100805.59;2610891;36;20038;-57
2022/11/08 00:47:42;;;;;;;9.68;2.40;;;;;;;13.66;100.00;100801.25;2608970;36;20523;-54
2022/11/08 00:50:11;;;;;;;11.32;2.60;;;;;;;13.54;100.00;100806.06;2609808;36;20061;-57
2022/11/08 00:52:39;;;;;;;;;;;;;;;13.43;100.00;100819.84;2605080;36;20054;-56
2022/11/08 00:55:09;;;;;;;5.32;2.10;;;;;;;13.52;100.00;100805.38;2608169;36;19951;-57
2022/11/08 00:57:37;;;;;;;10.48;2.25;;;;;;;13.59;100.00;100811.00;2611226;36;20138;-56
2022/11/08 01:00:11;;;;;;;7.05;2.25;;;;;;;13.53;100.00;100801.69;2611030;36;20638;-58
2022/11/08 01:02:39;;;;;;;7.03;2.20;;;;;;;13.39;100.00;100804.94;2608363;36;20042;-56
2022/11/08 01:05:08;;;;;;;5.47;2.00;;;;;;;13.48;100.00;100807.53;2608742;36;20428;-57
2022/11/08 01:07:37;;;;;;;10.18;2.20;;;;;;;13.31;100.00;100793.03;2628691;36;20287;-57
2022/11/08 01:10:06;;;;;;;8.52;2.38;;;;;;;13.34;100.00;100813.53;2610366;36;20043;-57
2022/11/08 01:12:35;;;;;;;;;;;;;;;13.26;100.00;100816.13;2611272;31;20034;-52
2022/11/08 01:15:03;;;;;;;6.45;2.38;;;;;;;13.33;100.00;100801.81;2613518;36;19983;-57
2022/11/08 01:17:34;;;;;;;10.15;2.40;;;;;;;13.31;100.00;100798.44;2610842;36;20023;-56
2022/11/08 01:20:02;;;;;;;6.68;2.00;;;;;;;13.37;100.00;100798.81;2614174;31;20037;-56
2022/11/08 01:22:30;;;;;;;5.80;2.40;;;;;;;13.28;100.00;100798.75;2611466;36;20054;-56
2022/11/08 01:24:59;;;;;;;5.47;1.85;;;;;;;13.18;100.00;100786.31;2611009;36;20023;-55
2022/11/08 01:27:27;;;;;;;6.18;2.30;;;;;;;13.32;100.00;100804.69;2611452;36;20035;-54
2022/11/08 01:29:55;;;;;;;7.93;2.35;;;;;;;13.36;100.00;100792.59;2610102;36;20042;-57
2022/11/08 01:32:23;;;;;;;6.40;2.15;;;;;;;13.21;100.00;100786.84;2610551;36;20839;-59
2022/11/08 01:34:54;;;;;;;7.57;2.27;;;;;;;13.32;100.00;100799.28;2613101;36;20039;-59
2022/11/08 01:37:23;;;;;;;5.88;2.17;;;;;;;13.24;100.00;100781.13;2609747;36;20039;-58
2022/11/08 01:39:51;;;;;;;6.18;2.30;;;;;;;13.20;100.00;100782.44;2612124;36;20029;-56
2022/11/08 01:42:19;;;;;;;8.57;2.47;;;;;;;13.19;100.00;100783.47;2609214;36;20391;-56
2022/11/08 01:44:59;;;;;;;10.00;2.38;;;;;;;13.12;100.00;100782.38;2611113;31;20030;-55
2022/11/08 01:47:27;;;;;;;8.43;2.15;;;;;;;13.11;100.00;100775.28;2609141;36;20039;-54
2022/11/08 01:50:02;;;;;;;12.77;2.28;;;;;;;13.02;100.00;100768.94;2610215;36;20035;-56
2022/11/08 01:52:35;;;;;;;11.18;2.70;;;;;;;13.07;100.00;100781.97;2612255;36;20031;-55
2022/11/08 01:55:10;;;;;;;12.43;2.40;;;;;;;13.11;100.00;100770.72;2610742;36;20049;-57
2022/11/08 01:57:44;;;;;;;10.15;1.85;;;;;;;13.05;100.00;100757.81;2612774;36;20439;-56
2022/11/08 02:00:14;;;;;;;6.40;1.90;;;;;;;12.99;100.00;100760.31;2609354;36;20034;-57
2022/11/08 02:02:44;;;;;;;7.13;2.22;;;;;;;12.90;100.00;100752.13;2611621;36;20026;-55
2022/11/08 02:05:26;;;;;;;6.53;2.88;;;;;;;12.86;100.00;100745.31;2610651;31;20031;-56
2022/11/08 02:07:59;;;;;;;8.25;2.30;;;;;;;12.95;100.00;100747.09;2609974;36;20041;-58
2022/11/08 02:10:33;;;;;;;7.93;3.00;;;;;;;12.83;100.00;100739.38;2608678;36;20037;-56
2022/11/08 02:13:02;;;;;;;7.88;2.95;;;;;;;12.87;100.00;100740.78;2610771;36;20034;-57
2022/11/08 02:15:30;;;;;;;10.38;3.15;;;;;;;12.83;100.00;100740.22;2614008;36;20034;-56
2022/11/08 02:17:58;;;;;;;9.93;2.47;;;;;;;12.79;100.00;100722.63;2616272;36;20022;-57
2022/11/08 02:20:29;;;;;;;7.78;3.33;;;;;;;12.87;100.00;100717.31;2615202;36;20027;-56
2022/11/08 02:23:04;;;;;;;11.35;3.17;;;;;;;12.93;100.00;100729.34;2615699;36;20540;-56
2022/11/08 02:25:34;;;;;;;10.13;3.45;;;;;;;12.88;100.00;100728.94;2616103;31;20028;-59
2022/11/08 02:28:03;;;;;;;7.72;2.75;;;;;;;12.82;100.00;100722.31;2615203;31;20026;-59
2022/11/08 02:30:34;;;;;;;9.32;3.17;;;;;;;12.80;100.00;100725.16;2614656;36;20038;-53
2022/11/08 02:33:02;;;;;;;11.80;4.03;;;;;;;12.78;100.00;100720.94;2616246;36;20019;-58
2022/11/08 02:35:31;;;;;;;13.00;3.60;;;;;;;12.74;100.00;100714.16;2616357;36;20125;-53
2022/11/08 02:37:59;;;;;;;11.73;3.35;;;;;;;12.74;100.00;100711.44;2616366;36;20022;-53
2022/11/08 02:40:27;;;;;;;6.90;3.08;;;;;;;12.88;100.00;100704.66;2616183;36;20475;-54
2022/11/08 02:42:58;;;;;;;10.23;3.78;;;;;;;12.89;100.00;100725.25;2615802;36;20046;-54
2022/11/08 02:45:26;;;;;;;15.60;3.50;;;;;;;12.93;100.00;100716.69;2615040;36;20034;-57
2022/11/08 02:47:54;;;;;;;8.07;2.90;;;;;;;12.79;100.00;100711.81;2616256;36;20019;-52
2022/11/08 02:50:23;;;;;;;14.13;3.20;;;;;;;12.78;100.00;100704.75;2615869;36;20037;-55
2022/11/08 02:52:51;;;;;;;8.98;3.42;;;;;;;12.74;100.00;100695.25;2616187;36;20026;-55
2022/11/08 02:55:19;;;;;;;12.90;4.00;;;;;;;12.77;100.00;100697.63;2615802;36;20439;-55
2022/11/08 02:57:47;;;;;;;8.70;3.00;;;;;;;12.74;100.00;100696.09;2615859;36;20559;-59
2022/11/08 03:00:19;;;;;;;10.52;3.80;;;;;;;12.70;100.00;100691.97;2614877;36;20042;-55
2022/11/08 03:02:50;;;;;;;8.10;3.22;;;;;;;12.76;100.00;100693.22;2615510;36;20441;-54
2022/11/08 03:05:18;;;;;;;9.30;3.15;;;;;;;12.69;100.00;100690.31;2615597;36;20035;-55
2022/11/08 03:07:47;;;;;;;11.50;3.70;;;;;;;12.57;100.00;100680.72;2615026;36;20027;-54
2022/11/08 03:10:15;;;;;;;10.63;3.03;;;;;;;12.64;100.00;100681.81;2614556;31;20062;-53
2022/11/08 03:12:44;;;;;;;12.20;3.22;;;;;;;12.72;100.00;100678.31;2615849;31;20022;-56
2022/11/08 03:15:14;;;;;;;12.25;3.28;;;;;;;12.71;100.00;100664.00;2614315;31;20459;-56
2022/11/08 03:17:45;;;;;;;10.15;3.45;;;;;;;12.79;100.00;100671.31;2615322;36;20057;-55
2022/11/08 03:20:14;;;;;;;10.15;3.47;;;;;;;12.64;100.00;100670.16;2614967;36;20038;-57
2022/11/08 03:22:42;;;;;;;6.07;3.07;;;;;;;12.64;100.00;100653.97;2615278;36;20022;-56
2022/11/08 03:25:11;;;;;;;10.65;2.88;;;;;;;12.60;100.00;100665.09;2614769;36;20042;-53
2022/11/08 03:27:39;;;;;;;7.93;3.08;;;;;;;12.66;100.00;100651.94;2615130;31;20038;-51
2022/11/08 03:30:09;;;;;;;10.60;3.25;;;;;;;12.56;100.00;100652.88;2614529;31;20674;-55
2022/11/08 03:32:37;;;;;;;10.05;3.10;;;;;;;12.60;100.00;100662.38;2615315;36;20034;-58
2022/11/08 03:35:10;;;;;;;8.05;2.92;;;;;;;12.54;100.00;100652.19;2614816;36;20065;-55
2022/11/08 03:37:38;;;;;;;6.03;2.70;;;;;;;12.73;100.00;100642.22;2616588;31;20539;-57
2022/11/08 03:40:08;;;;;;;6.55;2.75;;;;;;;12.64;100.00;100644.00;2616425;36;20551;-54
2022/11/08 03:42:36;;;;;;;6.65;3.35;;;;;;;12.64;100.00;100643.16;2616094;36;20543;-55
2022/11/08 03:45:05;;;;;;;8.52;2.78;;;;;;;12.57;100.00;100629.44;2614242;36;20444;-54
2022/11/08 03:47:38;;;;;;;11.10;3.30;;;;;;;12.64;100.00;100632.38;2615587;36;20039;-54
2022/11/08 03:50:11;;;;;;;10.77;3.15;;;;;;;12.67;100.00;100627.50;2616469;31;20053;-56
2022/11/08 03:52:42;;;;;;;12.38;4.15;;;;;;;12.62;100.00;100630.66;2616271;36;20536;-56
2022/11/08 03:55:12;;;;;;;9.02;3.10;;;;;;;12.64;100.00;100616.16;2615962;36;20151;-57
2022/11/08 03:57:41;;;;;;;8.18;2.95;;;;;;;12.70;100.00;100604.75;2615738;36;20065;-53
2022/11/08 04:00:11;;;;;;;;;;;;;;;12.77;100.00;100597.72;2615737;36;20038;-56
2022/11/08 04:02:39;;;;;;;6.90;2.90;;;;;;;12.62;100.00;100594.72;2616261;36;19939;-53
2022/11/08 04:05:12;;;;;;;12.57;2.55;;;;;;;12.59;100.00;100587.78;2616850;31;20550;-55
2022/11/08 04:07:41;;;;;;;7.32;2.42;;;;;;;12.58;100.00;100579.84;2617044;36;20455;-55
2022/11/08 04:10:11;;;;;;;6.18;2.10;;;;;;;12.64;100.00;100578.38;2613904;36;20023;-57
2022/11/08 04:15:23;;;;;;;5.80;1.95;;;;;;;12.58;100.00;100569.88;2601484;36;20034;-55
2022/11/08 04:23:26;;;;;;;5.20;2.00;;;;;;;12.66;100.00;100565.53;2607370;36;20035;-55
2022/11/08 04:25:58;;;;;;;5.32;2.15;;;;;;;12.60;100.00;100565.19;2608214;36;20045;-57
2022/11/08 04:28:27;;;;;;;6.85;2.10;;;;;;;12.62;100.00;100555.06;2607042;36;20065;-59
2022/11/08 04:30:57;;;;;;;5.72;2.05;;;;;;;12.59;100.00;100544.59;2607703;36;20031;-55
2022/11/08 04:33:26;;;;;;;4.05;1.50;;;;;;;12.66;100.00;100535.84;2609406;36;20026;-56
2022/11/08 04:35:57;;;;;;;8.73;1.92;;;;;;;12.64;100.00;100540.56;2612247;36;20061;-54
2022/11/08 04:38:25;;;;;;;4.35;1.95;;;;;;;12.55;100.00;100543.19;2612182;36;20030;-59
2022/11/08 04:40:53;;;;;;;4.53;1.98;;;;;;;12.60;100.00;100543.59;2611561;36;20034;-56
2022/11/08 04:43:22;;;;;;;7.00;2.10;;;;;;;12.70;100.00;100548.03;2614013;31;20459;-54
2022/11/08 04:45:50;;;;;;;6.28;2.47;;;;;;;12.58;100.00;100542.88;2610194;36;20026;-54
2022/11/08 04:48:18;;;;;;;5.28;1.80;;;;;;;12.41;100.00;100541.91;2610946;36;20034;-51
2022/11/08 04:50:46;;;;;;;5.93;2.45;;;;;;;12.46;100.00;100538.75;2610671;36;20026;-51
2022/11/08 04:53:17;;;;;;;5.40;1.70;;;;;;;12.54;100.00;100541.50;2611000;36;20036;-53
2022/11/08 04:55:45;;;;;;;6.05;2.03;;;;;;;12.37;100.00;100537.00;2608922;36;20042;-58
2022/11/08 04:58:14;;;;;;;6.28;2.00;;;;;;;12.41;100.00;100541.03;2610690;31;20045;-55
2022/11/08 05:00:42;;;;;;;5.03;2.20;;;;;;;12.51;100.00;100520.22;2610551;36;20031;-58
2022/11/08 05:03:10;;;;;;;5.13;2.38;;;;;;;12.50;100.00;100529.34;2610469;36;20034;-54
2022/11/08 05:05:39;;;;;;;8.23;2.10;;;;;;;12.40;100.00;100512.38;2607816;36;20034;-54
2022/11/08 05:08:07;;;;;;;3.17;1.88;;;;;;;12.38;100.00;100514.38;2606722;36;20531;-53
2022/11/08 05:10:38;;;;;;;5.90;2.33;;;;;;;12.38;100.00;100507.16;2607582;36;20050;-57
2022/11/08 05:13:06;;;;;;;6.18;2.17;;;;;;;12.56;100.00;100509.81;2608436;36;20367;-57
2022/11/08 05:15:35;;;;;;;7.60;2.05;;;;;;;12.59;100.00;100504.09;2608205;36;20031;-57
2022/11/08 05:18:03;;;;;;;5.18;1.95;;;;;;;12.49;100.00;100489.84;2608391;36;20027;-57
2022/11/08 05:23:27;;;;;;;6.78;2.40;;;;;;;12.55;100.00;100496.47;2607607;36;20409;-54
2022/11/08 05:25:59;;;;;;;4.95;2.33;;;;;;;12.46;100.00;100478.53;2608801;36;20456;-54
2022/11/08 05:28:27;;;;;;;4.05;1.63;;;;;;;12.48;100.00;100480.03;2609022;36;20735;-56
2022/11/08 05:30:57;;;;;;;3.10;1.70;;;;;;;12.50;100.00;100483.44;2606468;36;20065;-56
2022/11/08 05:33:25;;;;;;;;;;;;;;;12.50;100.00;100475.34;2609870;36;20618;-57
2022/11/08 05:35:54;;;;;;;7.30;2.13;;;;;;;12.58;100.00;100469.97;2608895;36;20719;-57
2022/11/08 05:38:23;;;;;;;3.03;1.50;;;;;;;12.47;100.00;100464.88;2611854;36;20294;-56
2022/11/08 05:40:51;;;;;;;6.28;2.10;;;;;;;12.70;100.00;100458.94;2611302;36;20459;-55
2022/11/08 05:43:22;;;;;;;3.45;1.60;;;;;;;12.55;100.00;100461.38;2611664;31;20578;-52
2022/11/08 05:45:50;;;;;;;5.50;2.03;;;;;;;12.65;100.00;100450.44;2609706;31;20451;-55
2022/11/08 05:48:18;;;;;;;4.78;1.60;;;;;;;12.68;100.00;100434.78;2610578;36;20038;-56
2022/11/08 05:50:47;;;;;;;3.92;1.73;;;;;;;12.65;100.00;100442.34;2612345;36;20026;-57
2022/11/08 05:53:15;;;;;;;3.70;1.45;;;;;;;12.58;100.00;100437.59;2608751;31;20430;-57
2022/11/08 05:55:43;;;;;;;5.15;1.92;;;;;;;12.45;100.00;100437.16;2610852;36;20054;-53
2022/11/08 05:58:12;;;;;;;3.95;1.60;;;;;;;12.56;100.00;100441.47;2609512;36;20034;-57
2022/11/08 06:00:42;;;;;;;5.72;1.65;;;;;;;12.51;100.00;100444.63;2609151;36;20440;-57
2022/11/08 06:03:11;;;;;;;4.78;2.08;;;;;;;12.43;100.00;100439.19;2611654;36;20030;-55
2022/11/08 06:05:39;;;;;;;4.22;1.90;;;;;;;12.50;100.00;100437.56;2610870;31;20030;-54
2022/11/08 06:08:08;;;;;;;4.32;1.77;;;;;;;12.42;100.00;100434.78;2611155;36;20515;-56
2022/11/08 06:10:36;;;;;;;7.25;1.88;;;;;;;12.36;100.00;100433.56;2610339;36;20038;-55
2022/11/08 06:13:05;;;;;;;6.95;1.90;;;;;;;12.46;100.00;100429.94;2608976;36;20038;-54
2022/11/08 06:15:33;;;;;;;5.32;1.92;;;;;;;12.38;100.00;100438.81;2609131;36;20034;-55
2022/11/08 06:18:06;;;;;;;4.97;1.80;;;;;;;12.42;100.00;100434.78;2610044;36;20030;-54
2022/11/08 06:20:35;;;;;;;6.20;2.45;;;;;;;12.53;100.00;100425.56;2610124;36;20042;-58
2022/11/08 06:23:03;;;;;;;6.07;2.00;;;;;;;12.57;100.00;100433.22;2608623;36;20053;-57
2022/11/08 06:25:31;;;;;;;3.92;2.08;;;;;;;12.56;100.00;100425.28;2610895;36;20034;-54
2022/11/08 06:28:01;;;;;;;8.48;2.55;;;;;;;12.53;100.00;100437.22;2608456;36;20057;-54
2022/11/08 06:30:29;;;;;;;5.70;1.67;;;;;;;12.54;100.00;100438.06;2610466;36;21260;-54
2022/11/08 06:33:00;;;;;;;6.47;2.15;;;;;;;12.62;100.00;100436.28;2610890;36;20038;-55
2022/11/08 06:35:31;;;;;;;4.18;2.10;;;;;;;12.64;100.00;100440.66;2614191;31;20120;-54
2022/11/08 06:37:59;;;;;;;5.07;2.00;;;;;;;12.58;100.00;100434.88;2611454;36;20022;-53
2022/11/08 06:40:28;;;;;;;4.37;1.77;;;;;;;12.68;100.00;100440.19;2608368;36;20045;-56
2022/11/08 06:42:57;;;;;;;6.72;2.10;;;;;;;12.73;100.00;100437.00;2604411;36;20310;-58
2022/11/08 06:45:25;;;;;;;;;;;;;;;12.60;100.00;100432.91;2610869;36;20042;-54
2022/11/08 06:47:59;;;;;;;6.65;2.28;;;;;;;12.61;100.00;100437.25;2611171;36;19950;-58
2022/11/08 06:50:27;;;;;;;10.15;2.53;;;;;;;12.47;100.00;100437.88;2610754;31;20030;-52
2022/11/08 06:53:03;;;;;;;3.67;1.63;;;;;;;12.64;100.00;100428.00;2609071;31;20405;-55
2022/11/08 06:55:32;;;;;;;5.53;1.75;;;;;;;12.57;100.00;100440.44;2606467;36;20319;-55
2022/11/08 06:58:00;;;;;;;3.60;1.75;;;;;;;12.57;100.00;100427.81;2614295;36;20041;-54
2022/11/08 07:00:29;;;;;;;5.43;2.10;;;;;;;12.62;100.00;100430.03;2612671;36;20056;-57
2022/11/08 07:02:59;;;;;;;3.50;1.35;;;;;;;12.58;100.00;100432.19;2612868;36;20030;-57
2022/11/08 07:05:28;;;;;;;5.93;1.75;;;;;;;12.62;100.00;100430.03;2614690;36;20022;-55
2022/11/08 07:08:02;;;;;;;4.32;1.70;;;;;;;12.57;100.00;100437.75;2616494;36;20536;-54
2022/11/08 07:10:32;;;;;;;3.00;1.50;;;;;;;12.57;100.00;100421.56;2615735;36;20420;-57
2022/11/08 07:13:02;;;;;;;4.20;1.70;;;;;;;12.50;100.00;100421.34;2615056;36;20618;-56
2022/11/08 07:15:32;;;;;;;5.75;1.70;;;;;;;12.58;100.00;100423.25;2612207;36;20041;-55
2022/11/08 07:18:02;;;;;;;7.18;2.15;;;;;;;12.56;100.00;100426.13;2613610;36;20578;-55
2022/11/08 07:20:31;;;;;;;9.20;2.10;;;;;;;12.50;100.00;100432.16;2615505;36;20129;-56
2022/11/08 07:23:02;;;;;;;4.88;1.85;;;;;;;12.50;100.00;100432.16;2614132;36;20546;-57
2022/11/08 07:25:31;;;;;;;2.53;1.45;;;;;;;12.66;100.00;100430.53;2615485;36;20567;-56
2022/11/08 07:28:01;;;;;;;3.60;1.73;;;;;;;12.64;100.00;100432.56;2613386;36;20030;-59
2022/11/08 07:30:31;;;;;;;2.55;1.60;;;;;;;12.46;100.00;100424.53;2615392;31;20031;-56
2022/11/08 07:33:00;;;;;;;6.15;1.60;;;;;;;12.63;100.00;100415.50;2615303;36;20033;-54
2022/11/08 07:35:29;;;;;;;5.40;1.92;;;;;;;12.56;100.00;100412.63;2615394;36;20046;-57
2022/11/08 07:37:57;;;;;;;;;;;;;;;12.71;100.00;100407.47;2616734;36;20427;-59
2022/11/08 07:40:28;;;;;;;6.60;1.90;;;;;;;12.64;100.00;100397.47;2615098;36;20047;-56
2022/11/08 07:42:59;;;;;;;4.28;1.85;;;;;;;12.71;100.00;100395.81;2616899;31;20035;-55
2022/11/08 07:45:28;;;;;;;5.40;1.60;;;;;;;12.62;100.00;100394.94;2615087;36;20054;-55
2022/11/08 07:48:00;;;;;;;4.40;1.80;;;;;;;12.60;100.00;100400.50;2614587;36;20057;-55
2022/11/08 07:50:29;;;;;;;3.58;1.90;;;;;;;12.65;100.00;100396.44;2615986;36;20091;-53
2022/11/08 07:52:57;;;;;;;4.47;1.65;;;;;;;12.61;100.00;100388.66;2615159;36;20035;-53
2022/11/08 07:55:29;;;;;;;5.20;1.83;;;;;;;12.76;100.00;100382.66;2613525;36;20030;-55
2022/11/08 07:58:00;;;;;;;4.35;1.80;;;;;;;12.79;100.00;100376.94;2615056;36;20315;-55
2022/11/08 08:00:29;;;;;;;4.03;1.60;;;;;;;12.90;100.00;100390.16;2616000;31;20030;-54
2022/11/08 08:02:59;;;;;;;6.03;2.20;;;;;;;12.91;100.00;100394.56;2616312;36;20041;-52
2022/11/08 08:05:29;;;;;;;7.88;2.78;;;;;;;12.94;100.00;100396.94;2608640;36;20303;-58
2022/11/08 08:07:58;;;;;;;8.38;3.33;;;;;;;12.92;100.00;100398.09;2613198;36;20049;-52
2022/11/08 08:10:29;;;;;;;;;;;;;;;13.01;100.00;100393.56;2615819;36;20403;-55
2022/11/08 08:12:58;;;;;;;4.85;2.05;;;;;;;13.15;100.00;100403.75;2616069;36;20503;-57
2022/11/08 08:15:27;;;;;;;7.30;2.78;;;;;;;13.22;100.00;100398.53;2614851;36;20042;-56
2022/11/08 08:17:55;;;;;;;9.18;2.97;;;;;;;13.20;100.00;100389.75;2610924;31;20566;-54
2022/11/08 08:20:24;;;;;;;6.80;2.92;;;;;;;13.36;100.00;100395.22;2608014;36;20444;-51
2022/11/08 08:22:53;;;;;;;6.80;2.67;;;;;;;13.33;100.00;100412.56;2609431;36;20030;-57
2022/11/08 08:25:21;;;;;;;;;;;;;;;13.41;100.00;100398.28;2607837;31;20057;-58
2022/11/08 08:27:53;;;;;;;7.70;2.60;;;;;;;13.29;100.00;100405.84;2608639;36;20401;-56
2022/11/08 08:30:23;;;;;;;6.13;1.88;;;;;;;13.44;100.00;100413.31;2608270;36;20027;-58
2022/11/08 08:32:52;;;;;;;5.32;2.00;;;;;;;13.41;100.00;100402.81;2608659;31;20045;-56
2022/11/08 08:35:20;;;;;;;;;;;;;;;13.42;100.00;100405.38;2608018;36;20034;-56
2022/11/08 08:37:49;;;;;;;4.53;1.83;;;;;;;13.51;100.00;100405.38;2608085;36;19951;-57
2022/11/08 08:40:17;;;;;;;6.03;2.63;;;;;;;13.50;100.00;100396.44;2607397;36;20720;-57
2022/11/08 08:42:45;;;;;;;5.95;2.40;;;;;;;13.45;100.00;100398.78;2608750;36;20029;-57
2022/11/08 08:45:16;;;;;;;6.80;2.38;;;;;;;13.50;100.00;100396.44;2608223;36;20038;-57
2022/11/08 08:47:45;;;;;;;4.53;2.60;;;;;;;13.49;100.00;100383.94;2608106;36;20030;-57
2022/11/08 08:50:13;;;;;;;4.53;1.90;;;;;;;13.67;100.00;100391.88;2607630;31;20035;-58
2022/11/08 08:52:41;;;;;;;2.80;1.60;;;;;;;13.71;100.00;100397.81;2609623;39;20448;-58
2022/11/08 08:55:10;;;;;;;4.45;2.63;;;;;;;13.83;100.00;100396.47;2608528;54;20035;-56
2022/11/08 08:57:38;;;;;;;3.92;1.63;;;;;;;13.66;100.00;100407.28;2608323;47;20773;-58
2022/11/08 09:00:11;;;;;;;5.95;1.83;;;;;;;13.65;100.00;100424.50;2608339;54;20057;-60
2022/11/08 09:02:47;;;;;;;4.53;1.65;;;;;;;13.59;100.00;100406.25;2611210;39;20487;-56
2022/11/08 09:05:16;;;;;;;5.65;2.03;;;;;;;13.59;100.00;100403.56;2609059;54;20034;-57
2022/11/08 09:07:44;;;;;;;6.45;2.35;;;;;;;13.89;100.00;100397.66;2603171;39;20090;-58
2022/11/08 09:10:13;;;;;;;3.85;1.75;;;;;;;13.68;100.00;100393.59;2608276;54;20035;-56
2022/11/08 09:12:42;;;;;;;3.78;1.92;;;;;;;13.61;100.00;100377.19;2608395;47;20035;-58
2022/11/08 09:15:11;;;;;;;4.68;1.42;;;;;;;13.69;100.00;100381.72;2608756;39;20495;-58
2022/11/08 09:17:40;;;;;;;4.60;2.20;;;;;;;13.81;100.00;100368.75;2602424;51;20065;-58
2022/11/08 09:20:13;;;;;;;6.07;2.05;;;;;;;13.88;100.00;100383.25;2610403;47;20026;-57
2022/11/08 09:22:41;;;;;;;3.28;1.92;;;;;;;13.95;100.00;100381.56;2610579;47;20552;-57
2022/11/08 09:25:10;;;;;;;2.80;1.80;;;;;;;13.81;100.00;100390.38;2608234;54;20594;-58
2022/11/08 09:27:39;;;;;;;3.55;1.80;;;;;;;13.81;100.00;100366.03;2609704;47;20034;-56
2022/11/08 09:30:09;;;;;;;8.33;2.53;;;;;;;13.96;100.00;100369.75;2612208;54;20034;-57
2022/11/08 09:32:37;;;;;;;3.47;1.90;;;;;;;13.89;100.00;100374.13;2609730;54;20038;-57
2022/11/08 09:35:06;;;;;;;4.80;1.57;;;;;;;14.17;100.00;100381.91;2609161;51;20046;-57
2022/11/08 09:37:37;;;;;;;3.67;1.90;;;;;;;14.01;100.00;100361.94;2609237;54;20041;-58
2022/11/08 09:40:06;;;;;;;2.22;1.52;;;;;;;14.14;100.00;100379.53;2609012;39;20448;-59
2022/11/08 09:42:48;;;;;;;3.45;1.60;;;;;;;14.17;100.00;100368.38;2608834;54;20039;-58
2022/11/08 09:45:33;;;;;;;4.35;2.25;;;;;;;13.91;100.00;100377.50;2607988;47;20034;-59
2022/11/08 09:48:05;;;;;;;4.28;1.70;;;;;;;14.02;100.00;100350.13;2609381;39;20416;-55
2022/11/08 09:50:39;;;;;;;5.90;1.90;;;;;;;14.13;100.00;100365.16;2607635;54;20038;-57
2022/11/08 09:53:17;;;;;;;6.22;2.13;;;;;;;14.03;100.00;100364.50;2608089;39;20448;-58
2022/11/08 09:55:50;;;;;;;3.17;1.60;;;;;;;13.95;100.00;100368.03;2609803;54;20031;-55
2022/11/08 09:58:34;;;;;;;4.18;1.50;;;;;;;14.25;100.00;100356.66;2607756;54;20042;-58
2022/11/08 10:01:03;;;;;;;3.45;1.80;;;;;;;14.28;100.00;100378.84;2606713;54;20022;-57
2022/11/08 10:03:32;;;;;;;4.78;1.55;;;;;;;14.39;100.00;100376.78;2608651;54;20031;-57
2022/11/08 10:06:21;;;;;;;2.20;1.40;;;;;;;14.22;100.00;100374.09;2606945;54;20030;-58
2022/11/08 10:09:00;;;;;;;3.85;2.03;;;;;;;14.20;100.00;100381.56;2607259;47;20065;-56
2022/11/08 10:11:42;;;;;;;4.25;1.50;;;;;;;14.32;100.00;100372.03;2606582;54;20031;-59
2022/11/08 10:14:28;;;;;;;4.53;1.70;;;;;;;14.28;100.00;100370.72;2608818;47;20608;-58
2022/11/08 10:17:07;;;;;;;3.20;2.10;;;;;;;14.48;100.00;100362.19;2600350;54;20039;-59
2022/11/08 10:19:48;;;;;;;2.33;1.60;;;;;;;14.70;100.00;100363.34;2607465;54;20031;-57
2022/11/08 10:22:23;;;;;;;3.20;1.90;;;;;;;14.64;100.00;100366.75;2607412;54;20041;-58
2022/11/08 10:25:00;;;;;;;2.40;1.73;;;;;;;14.75;100.00;100379.06;2607306;54;20034;-60
2022/11/08 10:27:35;;;;;;;3.40;1.67;;;;;;;14.58;100.00;100346.59;2602266;54;20073;-57
2022/11/08 10:30:06;;;;;;;2.92;1.70;;;;;;;14.64;100.00;100351.34;2610001;47;20034;-58
2022/11/08 10:32:37;;;;;;;3.60;2.05;;;;;;;14.65;100.00;100355.75;2607411;47;20035;-58
2022/11/08 10:35:18;;;;;;;3.50;1.88;;;;;;;14.54;100.00;100350.66;2607558;54;20075;-57
2022/11/08 10:37:48;;;;;;;4.13;1.98;;;;;;;14.59;100.00;100361.84;2608305;47;20045;-57
2022/11/08 10:40:26;;;;;;;3.15;2.08;;;;;;;14.97;100.00;100372.03;2615132;54;20023;-58
2022/11/08 10:43:03;;;;;;;3.10;1.65;;;;;;;14.83;100.00;100376.34;2615412;54;20030;-57
2022/11/08 10:45:32;;;;;;;5.72;1.80;;;;;;;14.61;100.00;100373.34;2614580;54;20037;-55
2022/11/08 10:48:00;;;;;;;3.13;1.48;;;;;;;14.62;100.00;100366.06;2616680;54;20037;-59
2022/11/08 10:50:39;;;;;;;7.35;2.15;;;;;;;14.76;100.00;100361.81;2616746;47;20038;-58
2022/11/08 10:53:07;;;;;;;3.50;1.63;;;;;;;14.91;100.00;100373.56;2615994;39;20415;-58
2022/11/08 10:55:49;;;;;;;3.45;1.55;;;;;;;14.54;100.00;100366.91;2608849;54;20041;-57
2022/11/08 10:58:38;;;;;;;2.85;1.50;;;;;;;14.61;100.00;100351.69;2608048;47;20022;-57
2022/11/08 11:01:14;;;;;;;6.50;1.75;;;;;;;14.61;100.00;100367.06;2607736;54;20034;-60
2022/11/08 11:03:43;;;;;;;3.38;1.90;;;;;;;14.73;100.00;100367.56;2607895;54;20038;-60
2022/11/08 11:06:26;;;;;;;4.50;1.40;;;;;;;14.71;100.00;100363.16;2606987;54;20034;-57
2022/11/08 11:08:58;;;;;;;4.90;1.90;;;;;;;14.71;100.00;100357.75;2608265;47;20184;-59
2022/11/08 11:11:37;;;;;;;5.60;2.22;;;;;;;14.85;100.00;100347.19;2605347;47;20057;-54
2022/11/08 11:14:16;;;;;;;4.15;1.90;;;;;;;14.91;100.00;100357.31;2608330;47;20042;-56
2022/11/08 11:16:55;;;;;;;4.07;1.80;;;;;;;14.84;100.00;100340.94;2606662;47;20030;-57
2022/11/08 11:19:25;;;;;;;3.13;1.70;;;;;;;14.95;100.00;100353.22;2609394;47;20034;-58
2022/11/08 11:22:00;;;;;;;3.08;1.55;;;;;;;15.30;100.00;100340.16;2606701;47;20034;-59
2022/11/08 11:24:28;;;;;;;3.70;1.48;;;;;;;15.24;100.00;100341.72;2606838;47;20138;-57
2022/11/08 11:27:08;;;;;;;4.50;1.90;;;;;;;15.16;100.00;100343.63;2601378;54;20045;-58
2022/11/08 11:29:38;;;;;;;3.65;1.58;;;;;;;15.16;100.00;100332.78;2610362;31;20994;-56
2022/11/08 11:32:24;;;;;;;2.67;1.75;;;;;;;15.28;100.00;100328.63;2607233;54;20035;-60
2022/11/08 11:34:56;;;;;;;5.00;1.83;;;;;;;15.28;100.00;100331.34;2607854;54;20022;-60
2022/11/08 11:37:39;;;;;;;5.35;2.40;;;;;;;15.48;100.00;100339.03;2600574;54;20030;-59
2022/11/08 11:40:20;;;;;;;4.88;1.70;;;;;;;15.22;100.00;100326.66;2607355;54;20037;-58
2022/11/08 11:42:58;;;;;;;4.57;2.05;;;;;;;15.09;100.00;100320.97;2608384;47;20031;-58
2022/11/08 11:45:33;;;;;;;4.03;1.67;;;;;;;15.18;100.00;100319.88;2607024;54;20034;-58
2022/11/08 11:48:05;;;;;;;3.92;1.70;;;;;;;15.31;100.00;100331.00;2607275;47;20035;-57
2022/11/08 11:50:35;;;;;;;3.38;1.75;;;;;;;15.48;100.00;100311.91;2607785;47;20031;-60
2022/11/08 11:53:06;;;;;;;2.78;1.60;;;;;;;15.42;100.00;100317.00;2607645;54;20022;-57
2022/11/08 11:55:48;;;;;;;7.05;2.38;;;;;;;15.54;100.00;100330.16;2609006;54;20037;-56